sensor_id;sensor_type;location;lat;lon;timestamp;pressure;altitude;pressure_sealevel;temperature;humidity
3697;BME280;60662;48.810;8.872;2023-08-06T08:07:53;95796.25;;;13.38;94.79
3697;BME280;60662;48.810;8.872;2023-08-06T08:10:02;95788.31;;;13.39;93.89
3697;BME280;60662;48.810;8.872;2023-08-06T08:12:12;95792.38;;;13.44;93.53
3697;BME280;60662;48.810;8.872;2023-08-06T08:19:42;95779.47;;;13.53;93.24
3697;BME280;60662;48.810;8.872;2023-08-06T08:21:57;95794.13;;;13.69;93.59
3697;BME280;60662;48.810;8.872;2023-08-06T08:24:10;95780.66;;;13.74;93.19
3697;BME280;60662;48.810;8.872;2023-08-06T08:25:11;95789.94;;;13.66;92.28
3697;BME280;60662;48.810;8.872;2023-08-06T08:26:13;95786.34;;;13.67;93.28
3697;BME280;60662;48.810;8.872;2023-08-06T08:27:14;95787.53;;;13.87;93.21
3697;BME280;60662;48.810;8.872;2023-08-06T08:28:16;95790.41;;;13.84;92.01
3697;BME280;60662;48.810;8.872;2023-08-06T08:30:24;95780.25;;;13.67;92.05
3697;BME280;60662;48.810;8.872;2023-08-06T08:32:43;95776.06;;;13.64;92.20
3697;BME280;60662;48.810;8.872;2023-08-06T08:33:45;95788.03;;;13.68;91.79
3697;BME280;60662;48.810;8.872;2023-08-06T08:35:55;95783.94;;;13.64;91.93
3697;BME280;60662;48.810;8.872;2023-08-06T08:36:57;95790.25;;;13.62;91.32
3697;BME280;60662;48.810;8.872;2023-08-06T08:39:16;95783.75;;;13.54;93.91
3697;BME280;60662;48.810;8.872;2023-08-06T08:53:21;95787.84;;;13.33;98.57
3697;BME280;60662;48.810;8.872;2023-08-06T08:55:37;95783.44;;;13.33;96.98
3697;BME280;60662;48.810;8.872;2023-08-06T08:56:39;95794.34;;;13.27;96.26
3697;BME280;60662;48.810;8.872;2023-08-06T08:57:40;95788.69;;;13.33;96.40
3697;BME280;60662;48.810;8.872;2023-08-06T08:58:42;95795.41;;;13.50;96.38
3697;BME280;60662;48.810;8.872;2023-08-06T08:59:44;95795.28;;;13.52;95.22
3697;BME280;60662;48.810;8.872;2023-08-06T09:00:46;95791.63;;;13.54;94.90
3697;BME280;60662;48.810;8.872;2023-08-06T09:01:51;95788.69;;;13.59;94.92
3697;BME280;60662;48.810;8.872;2023-08-06T09:05:29;95792.97;;;13.60;94.27
3697;BME280;60662;48.810;8.872;2023-08-06T09:07:49;95791.31;;;13.46;94.62
3697;BME280;60662;48.810;8.872;2023-08-06T09:10:10;95793.59;;;13.51;95.57
3697;BME280;60662;48.810;8.872;2023-08-06T09:25:54;95815.97;;;13.94;93.57
3697;BME280;60662;48.810;8.872;2023-08-06T09:28:12;95817.78;;;13.93;91.19
3697;BME280;60662;48.810;8.872;2023-08-06T09:30:33;95819.03;;;13.87;91.26
3697;BME280;60662;48.810;8.872;2023-08-06T09:32:59;95824.41;;;13.86;91.43
3697;BME280;60662;48.810;8.872;2023-08-06T09:35:21;95817.72;;;13.69;91.43
3697;BME280;60662;48.810;8.872;2023-08-06T09:37:39;95820.88;;;13.74;92.20
3697;BME280;60662;48.810;8.872;2023-08-06T09:40:00;95816.06;;;13.68;91.46
3697;BME280;60662;48.810;8.872;2023-08-06T09:47:56;95822.78;;;13.46;93.41
3697;BME280;60662;48.810;8.872;2023-08-06T09:53:11;95831.59;;;13.32;94.41
3697;BME280;60662;48.810;8.872;2023-08-06T09:54:14;95826.97;;;13.36;94.43
3697;BME280;60662;48.810;8.872;2023-08-06T09:55:28;95834.09;;;13.47;94.87
3697;BME280;60662;48.810;8.872;2023-08-06T09:56:29;95831.38;;;13.48;94.65
3697;BME280;60662;48.810;8.872;2023-08-06T09:57:34;95827.63;;;13.39;93.52
3697;BME280;60662;48.810;8.872;2023-08-06T09:58:36;95813.47;;;13.42;94.25
3697;BME280;60662;48.810;8.872;2023-08-06T09:59:38;95834.84;;;13.62;95.87
3697;BME280;60662;48.810;8.872;2023-08-06T10:11:42;95830.19;;;13.14;98.69
3697;BME280;60662;48.810;8.872;2023-08-06T10:12:47;95844.78;;;13.18;98.13
3697;BME280;60662;48.810;8.872;2023-08-06T10:13:54;95838.28;;;13.23;98.58
3697;BME280;60662;48.810;8.872;2023-08-06T10:15:01;95827.06;;;13.21;96.62
3697;BME280;60662;48.810;8.872;2023-08-06T10:16:03;95832.41;;;13.33;96.80
3697;BME280;60662;48.810;8.872;2023-08-06T10:17:07;95838.19;;;13.51;97.26
3697;BME280;60662;48.810;8.872;2023-08-06T10:18:11;95836.94;;;13.57;96.40
3697;BME280;60662;48.810;8.872;2023-08-06T10:21:08;95842.94;;;13.59;95.87
3697;BME280;60662;48.810;8.872;2023-08-06T10:22:11;95852.06;;;13.53;94.55
3697;BME280;60662;48.810;8.872;2023-08-06T10:23:13;95826.34;;;13.45;94.93
3697;BME280;60662;48.810;8.872;2023-08-06T10:24:16;95850.56;;;13.62;95.82
3697;BME280;60662;48.810;8.872;2023-08-06T10:25:17;95850.16;;;13.55;94.15
3697;BME280;60662;48.810;8.872;2023-08-06T10:26:19;95850.06;;;13.57;94.26
3697;BME280;60662;48.810;8.872;2023-08-06T10:27:54;95842.31;;;13.55;94.69
3697;BME280;60662;48.810;8.872;2023-08-06T10:28:56;95851.94;;;13.54;95.26
3697;BME280;60662;48.810;8.872;2023-08-06T10:40:20;95876.78;;;13.23;93.94
3697;BME280;60662;48.810;8.872;2023-08-06T11:09:01;95909.69;;;12.47;96.66
3697;BME280;60662;48.810;8.872;2023-08-06T11:10:06;95904.97;;;12.66;96.93
3697;BME280;60662;48.810;8.872;2023-08-06T11:11:13;95898.47;;;12.72;95.49
3697;BME280;60662;48.810;8.872;2023-08-06T11:12:18;95903.56;;;12.88;95.79
3697;BME280;60662;48.810;8.872;2023-08-06T11:13:23;95908.03;;;12.86;94.82
3697;BME280;60662;48.810;8.872;2023-08-06T11:14:25;95903.47;;;13.02;94.57
3697;BME280;60662;48.810;8.872;2023-08-06T11:15:27;95904.66;;;13.24;95.48
3697;BME280;60662;48.810;8.872;2023-08-06T12:00:42;95957.16;;;12.13;94.72
3697;BME280;60662;48.810;8.872;2023-08-06T12:14:32;95974.41;;;12.45;93.34
3697;BME280;60662;48.810;8.872;2023-08-06T12:15:34;95972.78;;;12.56;92.40
3697;BME280;60662;48.810;8.872;2023-08-06T12:16:35;95977.84;;;12.60;92.22
3697;BME280;60662;48.810;8.872;2023-08-06T12:18:45;95991.19;;;12.69;91.73
3697;BME280;60662;48.810;8.872;2023-08-06T12:19:46;95983.91;;;12.60;90.59
3697;BME280;60662;48.810;8.872;2023-08-06T12:20:48;95979.88;;;12.69;90.53
3697;BME280;60662;48.810;8.872;2023-08-06T12:21:50;95968.06;;;12.76;89.67
3697;BME280;60662;48.810;8.872;2023-08-06T12:22:51;95966.72;;;12.83;89.50
3697;BME280;60662;48.810;8.872;2023-08-06T12:23:53;95977.06;;;12.99;90.16
3697;BME280;60662;48.810;8.872;2023-08-06T12:24:54;95978.16;;;13.22;89.90
3697;BME280;60662;48.810;8.872;2023-08-06T12:25:56;95979.50;;;13.15;87.90
3697;BME280;60662;48.810;8.872;2023-08-06T12:26:58;95977.44;;;13.20;87.85
3697;BME280;60662;48.810;8.872;2023-08-06T12:27:59;95973.19;;;13.05;87.17
3697;BME280;60662;48.810;8.872;2023-08-06T12:29:00;95975.66;;;13.21;88.02
3697;BME280;60662;48.810;8.872;2023-08-06T12:30:02;95980.25;;;13.45;87.87
3697;BME280;60662;48.810;8.872;2023-08-06T12:31:04;95981.63;;;13.63;87.10
3697;BME280;60662;48.810;8.872;2023-08-06T12:32:06;95979.13;;;13.62;86.17
3697;BME280;60662;48.810;8.872;2023-08-06T12:33:07;95972.28;;;13.72;85.42
3697;BME280;60662;48.810;8.872;2023-08-06T12:34:09;95981.31;;;13.68;85.08
3697;BME280;60662;48.810;8.872;2023-08-06T12:35:11;95985.50;;;13.58;85.35
3697;BME280;60662;48.810;8.872;2023-08-06T12:36:12;95977.66;;;13.58;85.61
3697;BME280;60662;48.810;8.872;2023-08-06T12:37:14;95968.31;;;13.53;85.03
3697;BME280;60662;48.810;8.872;2023-08-06T12:38:15;95985.63;;;13.56;85.90
3697;BME280;60662;48.810;8.872;2023-08-06T12:39:17;95990.22;;;13.52;85.50
3697;BME280;60662;48.810;8.872;2023-08-06T12:40:18;95989.88;;;13.44;85.23
3697;BME280;60662;48.810;8.872;2023-08-06T12:41:35;95990.94;;;13.42;85.70
3697;BME280;60662;48.810;8.872;2023-08-06T12:42:37;95998.25;;;13.36;86.07
3697;BME280;60662;48.810;8.872;2023-08-06T12:43:38;95999.69;;;13.55;85.67
3697;BME280;60662;48.810;8.872;2023-08-06T12:44:40;95989.28;;;13.53;85.17
3697;BME280;60662;48.810;8.872;2023-08-06T12:48:39;95998.84;;;13.67;85.25
3697;BME280;60662;48.810;8.872;2023-08-06T12:49:41;95993.19;;;13.74;84.39
3697;BME280;60662;48.810;8.872;2023-08-06T12:50:42;95993.09;;;13.88;84.10
3697;BME280;60662;48.810;8.872;2023-08-06T12:51:44;95991.41;;;14.00;83.96
3697;BME280;60662;48.810;8.872;2023-08-06T12:52:45;95994.03;;;13.87;83.29
3697;BME280;60662;48.810;8.872;2023-08-06T12:53:47;95992.47;;;13.84;83.64
3697;BME280;60662;48.810;8.872;2023-08-06T12:54:48;95992.03;;;14.03;83.85
3697;BME280;60662;48.810;8.872;2023-08-06T12:55:50;95994.97;;;14.12;83.38
3697;BME280;60662;48.810;8.872;2023-08-06T12:56:51;95988.75;;;14.13;82.65
3697;BME280;60662;48.810;8.872;2023-08-06T12:57:53;95990.31;;;14.28;82.46
3697;BME280;60662;48.810;8.872;2023-08-06T12:58:59;95996.16;;;14.45;81.82
3697;BME280;60662;48.810;8.872;2023-08-06T13:00:01;95984.09;;;14.42;81.41
3697;BME280;60662;48.810;8.872;2023-08-06T13:01:03;95990.41;;;14.40;81.11
3697;BME280;60662;48.810;8.872;2023-08-06T13:02:04;95988.00;;;14.36;80.88
3697;BME280;60662;48.810;8.872;2023-08-06T13:03:06;95989.94;;;14.59;81.13
3697;BME280;60662;48.810;8.872;2023-08-06T13:04:07;95990.78;;;14.59;80.52
3697;BME280;60662;48.810;8.872;2023-08-06T13:05:23;95996.28;;;14.43;80.52
3697;BME280;60662;48.810;8.872;2023-08-06T13:06:24;95992.34;;;14.25;80.98
3697;BME280;60662;48.810;8.872;2023-08-06T13:07:26;96003.69;;;14.25;81.54
3697;BME280;60662;48.810;8.872;2023-08-06T13:08:27;95996.63;;;14.39;81.62
3697;BME280;60662;48.810;8.872;2023-08-06T13:09:28;96000.19;;;14.37;81.83
3697;BME280;60662;48.810;8.872;2023-08-06T13:10:33;96002.94;;;14.36;82.15
3697;BME280;60662;48.810;8.872;2023-08-06T13:11:36;95995.38;;;14.31;81.33
3697;BME280;60662;48.810;8.872;2023-08-06T13:12:39;96006.59;;;14.20;81.31
3697;BME280;60662;48.810;8.872;2023-08-06T13:13:40;96011.03;;;14.07;81.74
3697;BME280;60662;48.810;8.872;2023-08-06T13:14:41;96006.41;;;13.98;82.43
3697;BME280;60662;48.810;8.872;2023-08-06T13:15:43;96022.59;;;14.04;82.53
3697;BME280;60662;48.810;8.872;2023-08-06T13:17:43;96021.63;;;13.80;82.47
3697;BME280;60662;48.810;8.872;2023-08-06T13:32:22;96029.56;;;13.39;85.28
3697;BME280;60662;48.810;8.872;2023-08-06T13:37:00;96037.22;;;13.55;84.53
3697;BME280;60662;48.810;8.872;2023-08-06T13:38:02;96031.81;;;13.71;84.87
3697;BME280;60662;48.810;8.872;2023-08-06T13:39:06;96043.13;;;13.72;83.97
3697;BME280;60662;48.810;8.872;2023-08-06T13:40:08;96034.44;;;13.84;83.20
3697;BME280;60662;48.810;8.872;2023-08-06T13:41:10;96042.84;;;13.90;82.11
3697;BME280;60662;48.810;8.872;2023-08-06T13:42:11;96035.63;;;13.93;81.72
3697;BME280;60662;48.810;8.872;2023-08-06T13:43:13;96039.06;;;14.07;81.85
3697;BME280;60662;48.810;8.872;2023-08-06T13:44:14;96038.34;;;14.17;81.67
3697;BME280;60662;48.810;8.872;2023-08-06T13:45:16;96044.00;;;14.24;81.01
3697;BME280;60662;48.810;8.872;2023-08-06T13:46:18;96027.31;;;14.12;81.53
3697;BME280;60662;48.810;8.872;2023-08-06T13:47:21;96036.84;;;14.00;81.20
3697;BME280;60662;48.810;8.872;2023-08-06T13:48:23;96027.31;;;14.12;81.46
3697;BME280;60662;48.810;8.872;2023-08-06T13:49:24;96033.91;;;14.31;81.86
3697;BME280;60662;48.810;8.872;2023-08-06T13:50:25;96037.19;;;14.21;80.88
3697;BME280;60662;48.810;8.872;2023-08-06T13:51:27;96047.91;;;14.06;80.88
3697;BME280;60662;48.810;8.872;2023-08-06T13:52:30;96039.19;;;13.92;80.99
3697;BME280;60662;48.810;8.872;2023-08-06T13:53:31;96051.66;;;14.01;81.43
3697;BME280;60662;48.810;8.872;2023-08-06T13:54:32;96039.81;;;13.96;81.39
3697;BME280;60662;48.810;8.872;2023-08-06T13:55:34;96050.38;;;13.81;82.94
3697;BME280;60662;48.810;8.872;2023-08-06T13:56:35;96050.84;;;14.01;84.36
3697;BME280;60662;48.810;8.872;2023-08-06T13:57:39;96046.00;;;14.20;83.67
3697;BME280;60662;48.810;8.872;2023-08-06T13:58:40;96043.25;;;14.48;83.83
3697;BME280;60662;48.810;8.872;2023-08-06T13:59:41;96036.16;;;14.87;82.66
3697;BME280;60662;48.810;8.872;2023-08-06T14:00:45;96044.50;;;15.54;80.73
3697;BME280;60662;48.810;8.872;2023-08-06T14:01:47;96035.44;;;15.69;78.41
3697;BME280;60662;48.810;8.872;2023-08-06T14:02:53;96041.81;;;15.78;77.83
3697;BME280;60662;48.810;8.872;2023-08-06T14:03:54;96039.50;;;15.62;78.69
3697;BME280;60662;48.810;8.872;2023-08-06T14:04:56;96034.59;;;15.93;78.62
3697;BME280;60662;48.810;8.872;2023-08-06T14:05:58;96041.34;;;16.54;77.20
3697;BME280;60662;48.810;8.872;2023-08-06T14:06:59;96038.56;;;17.12;76.27
3697;BME280;60662;48.810;8.872;2023-08-06T14:08:00;96045.53;;;16.33;74.74
3697;BME280;60662;48.810;8.872;2023-08-06T14:09:02;96046.69;;;15.95;75.89
3697;BME280;60662;48.810;8.872;2023-08-06T14:10:04;96050.28;;;15.70;77.68
3697;BME280;60662;48.810;8.872;2023-08-06T14:11:06;96041.00;;;15.42;77.23
3697;BME280;60662;48.810;8.872;2023-08-06T14:12:08;96055.25;;;15.50;78.40
3697;BME280;60662;48.810;8.872;2023-08-06T14:13:09;96041.09;;;15.40;77.35
3697;BME280;60662;48.810;8.872;2023-08-06T14:14:11;96052.91;;;15.34;77.52
3697;BME280;60662;48.810;8.872;2023-08-06T14:15:13;96051.78;;;15.26;78.13
3697;BME280;60662;48.810;8.872;2023-08-06T14:16:14;96054.22;;;15.29;78.29
3697;BME280;60662;48.810;8.872;2023-08-06T14:17:16;96054.34;;;15.39;78.03
3697;BME280;60662;48.810;8.872;2023-08-06T14:18:17;96048.94;;;15.29;77.26
3697;BME280;60662;48.810;8.872;2023-08-06T14:31:28;96089.38;;;14.13;81.54
3697;BME280;60662;48.810;8.872;2023-08-06T14:32:30;96097.56;;;14.21;81.80
3697;BME280;60662;48.810;8.872;2023-08-06T14:33:32;96086.25;;;14.21;81.80
3697;BME280;60662;48.810;8.872;2023-08-06T14:47:51;96127.69;;;12.79;93.49
3697;BME280;60662;48.810;8.872;2023-08-06T14:48:52;96115.41;;;12.94;92.97
3697;BME280;60662;48.810;8.872;2023-08-06T14:49:54;96112.19;;;13.03;90.94
3697;BME280;60662;48.810;8.872;2023-08-06T14:50:55;96118.41;;;13.30;91.12
3697;BME280;60662;48.810;8.872;2023-08-06T14:51:57;96111.75;;;13.66;90.42
3697;BME280;60662;48.810;8.872;2023-08-06T14:53:02;96110.44;;;13.86;90.96
3697;BME280;60662;48.810;8.872;2023-08-06T14:54:05;96120.00;;;13.87;88.27
3697;BME280;60662;48.810;8.872;2023-08-06T14:55:07;96113.44;;;14.46;86.57
3697;BME280;60662;48.810;8.872;2023-08-06T14:56:09;96122.59;;;14.79;83.76
3697;BME280;60662;48.810;8.872;2023-08-06T14:57:10;96121.22;;;14.86;82.81
3697;BME280;60662;48.810;8.872;2023-08-06T14:58:12;96109.50;;;15.03;82.21
3697;BME280;60662;48.810;8.872;2023-08-06T14:59:13;96091.31;;;15.00;82.20
3697;BME280;60662;48.810;8.872;2023-08-06T15:00:15;96125.78;;;15.08;81.08
3697;BME280;60662;48.810;8.872;2023-08-06T15:01:16;96121.78;;;15.15;80.06
3697;BME280;60662;48.810;8.872;2023-08-06T15:02:18;96117.59;;;15.61;79.25
3697;BME280;60662;48.810;8.872;2023-08-06T15:03:19;96114.41;;;16.40;78.22
3697;BME280;60662;48.810;8.872;2023-08-06T15:04:21;96119.00;;;16.84;75.93
3697;BME280;60662;48.810;8.872;2023-08-06T15:05:25;96127.47;;;16.30;75.04
3697;BME280;60662;48.810;8.872;2023-08-06T15:06:26;96125.25;;;16.13;75.07
3697;BME280;60662;48.810;8.872;2023-08-06T15:07:28;96123.84;;;15.85;77.64
3697;BME280;60662;48.810;8.872;2023-08-06T15:08:32;96124.22;;;15.43;78.06
3697;BME280;60662;48.810;8.872;2023-08-06T15:09:33;96123.28;;;15.07;77.84
3697;BME280;60662;48.810;8.872;2023-08-06T15:10:54;96120.81;;;14.79;78.52
3697;BME280;60662;48.810;8.872;2023-08-06T15:11:56;96127.31;;;14.86;78.41
3697;BME280;60662;48.810;8.872;2023-08-06T15:12:58;96127.00;;;14.91;77.80
3697;BME280;60662;48.810;8.872;2023-08-06T15:14:00;96131.78;;;15.10;77.96
3697;BME280;60662;48.810;8.872;2023-08-06T15:15:02;96127.63;;;15.80;77.15
3697;BME280;60662;48.810;8.872;2023-08-06T15:16:04;96127.81;;;15.42;75.79
3697;BME280;60662;48.810;8.872;2023-08-06T15:17:05;96135.25;;;15.48;76.78
3697;BME280;60662;48.810;8.872;2023-08-06T15:18:07;96136.06;;;15.24;76.45
3697;BME280;60662;48.810;8.872;2023-08-06T15:19:08;96129.03;;;15.12;77.58
3697;BME280;60662;48.810;8.872;2023-08-06T15:20:10;96135.31;;;15.22;77.17
3697;BME280;60662;48.810;8.872;2023-08-06T15:21:11;96144.53;;;15.04;77.61
3697;BME280;60662;48.810;8.872;2023-08-06T15:22:13;96134.13;;;14.89;77.76
3697;BME280;60662;48.810;8.872;2023-08-06T15:23:15;96137.00;;;14.86;78.68
3697;BME280;60662;48.810;8.872;2023-08-06T15:24:16;96134.25;;;14.75;79.18
3697;BME280;60662;48.810;8.872;2023-08-06T15:25:18;96134.81;;;14.67;79.66
3697;BME280;60662;48.810;8.872;2023-08-06T15:26:19;96139.19;;;14.53;80.23
3697;BME280;60662;48.810;8.872;2023-08-06T15:27:22;96141.38;;;14.47;79.99
3697;BME280;60662;48.810;8.872;2023-08-06T15:28:23;96132.03;;;14.56;80.75
3697;BME280;60662;48.810;8.872;2023-08-06T15:29:25;96139.41;;;14.37;80.21
3697;BME280;60662;48.810;8.872;2023-08-06T15:30:26;96137.06;;;14.46;79.59
3697;BME280;60662;48.810;8.872;2023-08-06T15:31:36;96137.50;;;14.40;82.29
3697;BME280;60662;48.810;8.872;2023-08-06T15:32:38;96144.84;;;14.34;82.75
3697;BME280;60662;48.810;8.872;2023-08-06T15:34:36;96157.97;;;14.21;83.41
3697;BME280;60662;48.810;8.872;2023-08-06T15:35:38;96130.25;;;14.17;81.87
3697;BME280;60662;48.810;8.872;2023-08-06T15:36:39;96133.91;;;14.41;83.47
3697;BME280;60662;48.810;8.872;2023-08-06T15:37:41;96142.84;;;14.12;83.77
3697;BME280;60662;48.810;8.872;2023-08-06T15:38:42;96137.13;;;13.93;84.89
3697;BME280;60662;48.810;8.872;2023-08-06T15:47:01;96145.28;;;13.48;88.33
3697;BME280;60662;48.810;8.872;2023-08-06T15:48:03;96154.44;;;13.55;87.59
3697;BME280;60662;48.810;8.872;2023-08-06T15:49:04;96157.22;;;13.66;87.76
3697;BME280;60662;48.810;8.872;2023-08-06T15:50:07;96157.28;;;13.92;86.54
3697;BME280;60662;48.810;8.872;2023-08-06T15:51:09;96157.94;;;14.09;85.63
3697;BME280;60662;48.810;8.872;2023-08-06T15:52:11;96160.06;;;14.16;86.44
3697;BME280;60662;48.810;8.872;2023-08-06T15:53:12;96160.28;;;14.26;86.70
3697;BME280;60662;48.810;8.872;2023-08-06T15:54:14;96157.78;;;14.25;85.54
3697;BME280;60662;48.810;8.872;2023-08-06T15:55:15;96159.63;;;14.10;86.61
3697;BME280;60662;48.810;8.872;2023-08-06T15:56:17;96164.03;;;14.09;86.60
3697;BME280;60662;48.810;8.872;2023-08-06T15:57:18;96163.84;;;14.25;87.23
3697;BME280;60662;48.810;8.872;2023-08-06T15:58:20;96163.69;;;14.41;85.04
3697;BME280;60662;48.810;8.872;2023-08-06T15:59:28;96168.56;;;14.07;84.01
3697;BME280;60662;48.810;8.872;2023-08-06T16:00:30;96180.25;;;13.88;84.83
3697;BME280;60662;48.810;8.872;2023-08-06T16:01:31;96159.22;;;14.03;85.92
3697;BME280;60662;48.810;8.872;2023-08-06T16:02:33;96166.72;;;13.95;85.19
3697;BME280;60662;48.810;8.872;2023-08-06T16:03:34;96154.69;;;14.05;86.20
3697;BME280;60662;48.810;8.872;2023-08-06T16:17:37;96185.59;;;12.74;89.08
3697;BME280;60662;48.810;8.872;2023-08-06T16:18:38;96180.28;;;12.76;90.21
3697;BME280;60662;48.810;8.872;2023-08-06T16:19:40;96193.75;;;12.70;90.47
3697;BME280;60662;48.810;8.872;2023-08-06T16:20:43;96192.16;;;12.67;91.16
3697;BME280;60662;48.810;8.872;2023-08-06T16:21:44;96198.53;;;12.78;90.89
3697;BME280;60662;48.810;8.872;2023-08-06T16:22:46;96205.44;;;12.93;90.83
3697;BME280;60662;48.810;8.872;2023-08-06T16:23:47;96196.81;;;12.91;89.15
3697;BME280;60662;48.810;8.872;2023-08-06T16:24:48;96188.13;;;12.90;89.17
3697;BME280;60662;48.810;8.872;2023-08-06T16:25:50;96198.03;;;13.00;88.54
3697;BME280;60662;48.810;8.872;2023-08-06T16:26:52;96200.84;;;12.97;88.19
3697;BME280;60662;48.810;8.872;2023-08-06T16:27:53;96204.13;;;13.00;88.00
